Time;durP1;ratioP1;P1;durP2;ratioP2;P2;SDS_P1;SDS_P2;PMS_P1;PMS_P2;Temp;Humidity;BMP_temperature;BMP_pressure;BME280_temperature;BME280_humidity;BME280_pressure;Samples;Min_cycle;Max_cycle;Signal;HPM_P1;HPM_P2
2022/09/03 00:00:26;;;;;;;5.97;0.90;;;;;;;21.85;65.86;100966.81;5124755;28;20300;-63
2022/09/03 00:03:11;;;;;;;2.13;0.53;;;;;;;21.93;65.19;100965.47;5124762;28;20335;-64
2022/09/03 00:05:58;;;;;;;2.77;0.60;;;;;;;22.03;64.06;100965.84;5125042;28;20287;-64
2022/09/03 00:08:43;;;;;;;2.10;0.70;;;;;;;22.06;62.45;100964.81;5108305;28;20361;-63
2022/09/03 00:11:33;;;;;;;4.10;0.80;;;;;;;22.21;62.98;100958.69;5124993;28;20396;-64
2022/09/03 00:14:17;;;;;;;5.00;0.80;;;;;;;22.16;62.44;100936.75;5124350;28;20339;-65
2022/09/03 00:16:59;;;;;;;4.63;0.73;;;;;;;22.43;62.70;100957.53;5123503;28;20881;-65
2022/09/03 00:19:53;;;;;;;4.17;0.93;;;;;;;22.35;61.89;100934.00;5125021;28;20293;-64
2022/09/03 00:22:49;;;;;;;16.97;1.40;;;;;;;22.43;61.76;100955.72;5122242;28;20055;-64
2022/09/03 00:25:37;;;;;;;4.60;1.00;;;;;;;22.61;62.91;100960.06;5124031;28;20345;-63
2022/09/03 00:28:42;;;;;;;1.50;0.67;;;;;;;22.69;61.86;100948.97;5124330;28;20058;-65
2022/09/03 00:31:37;;;;;;;4.67;1.23;;;;;;;22.81;60.84;100950.94;5080276;28;20055;-64
2022/09/03 00:34:27;;;;;;;5.03;1.10;;;;;;;22.95;62.13;100949.28;5091062;28;20039;-65
2022/09/03 00:37:20;;;;;;;9.70;1.10;;;;;;;22.94;61.54;100942.22;5094872;28;20109;-64
2022/09/03 00:40:01;;;;;;;16.87;1.73;;;;;;;23.06;61.71;100946.88;5124215;28;20055;-65
2022/09/03 00:42:55;;;;;;;5.90;1.00;;;;;;;23.03;60.22;100936.41;5124138;28;20047;-64
2022/09/03 00:45:37;;;;;;;3.67;1.00;;;;;;;23.13;61.05;100937.59;5124074;28;20058;-65
2022/09/03 00:48:26;;;;;;;3.13;0.80;;;;;;;23.27;61.04;100934.13;5123949;28;20054;-65
2022/09/03 00:51:39;;;;;;;2.23;0.90;;;;;;;23.34;59.50;100924.81;5124094;28;20055;-65
2022/09/03 00:55:03;;;;;;;12.83;1.27;;;;;;;23.42;60.41;100917.22;5124113;28;20047;-65
2022/09/03 00:57:51;;;;;;;6.07;1.10;;;;;;;23.48;58.63;100915.97;5123311;28;20115;-65
2022/09/03 01:00:41;;;;;;;4.93;1.00;;;;;;;23.56;57.92;100918.19;5123879;28;20084;-65
2022/09/03 01:03:33;;;;;;;5.30;1.10;;;;;;;23.62;58.18;100912.50;5123828;28;20061;-65
2022/09/03 01:06:35;;;;;;;20.07;1.07;;;;;;;23.61;57.05;100914.31;5122870;28;20051;-65
2022/09/03 01:09:33;;;;;;;5.70;0.83;;;;;;;23.63;59.17;100909.72;5123926;28;20047;-65
2022/09/03 01:12:44;;;;;;;12.07;1.47;;;;;;;23.63;56.59;100909.72;5123783;28;20278;-65
2022/09/03 01:15:55;;;;;;;3.00;1.00;;;;;;;23.69;56.49;100904.03;5071746;28;20069;-64
2022/09/03 01:18:49;;;;;;;3.45;0.90;;;;;;;23.76;57.87;100893.00;5123890;28;20059;-64
2022/09/03 01:21:48;;;;;;;6.63;1.20;;;;;;;23.82;58.57;100892.63;5123915;28;20059;-64
2022/09/03 01:24:58;;;;;;;6.53;1.10;;;;;;;23.87;57.85;100890.53;5123915;28;20071;-64
2022/09/03 01:27:48;;;;;;;7.40;1.23;;;;;;;24.00;57.26;100875.47;5118215;28;20064;-64
2022/09/03 01:30:27;;;;;;;7.93;1.33;;;;;;;24.06;55.97;100880.44;5128514;28;20123;-65
2022/09/03 01:33:11;;;;;;;14.30;1.37;;;;;;;24.03;55.84;100869.06;5127958;28;20093;-64
2022/09/03 01:35:56;;;;;;;6.73;1.10;;;;;;;24.08;55.94;100878.50;5127990;28;20044;-65
2022/09/03 01:38:57;;;;;;;16.27;1.67;;;;;;;24.15;55.28;100878.13;5127075;28;20083;-64
2022/09/03 01:44:50;;;;;;;14.13;1.70;;;;;;;24.40;55.74;100867.56;5123515;28;20296;-65
2022/09/03 01:48:00;;;;;;;2.03;0.87;;;;;;;24.41;54.93;100865.75;5124217;28;20051;-65
2022/09/03 01:50:56;;;;;;;4.03;1.10;;;;;;;24.23;53.65;100838.44;5087748;28;20054;-64
2022/09/03 01:53:56;;;;;;;5.60;1.07;;;;;;;24.34;54.84;100849.28;5124450;28;20044;-66
2022/09/03 01:56:51;;;;;;;13.27;1.30;;;;;;;24.44;55.00;100853.09;5124284;28;20345;-65
2022/09/03 01:59:46;;;;;;;3.93;0.93;;;;;;;24.31;54.21;100825.44;5125072;28;20044;-65
2022/09/03 02:02:25;;;;;;;5.63;1.17;;;;;;;24.43;55.08;100846.00;5089864;28;20625;-66
2022/09/03 02:05:23;;;;;;;13.73;1.60;;;;;;;24.35;54.77;100824.28;5124969;28;20046;-65
2022/09/03 02:08:18;;;;;;;5.53;1.07;;;;;;;24.58;54.94;100844.19;5095867;28;20087;-65
2022/09/03 02:11:00;;;;;;;13.20;1.30;;;;;;;24.67;54.49;100837.38;5124403;28;20051;-66
2022/09/03 02:13:41;;;;;;;3.90;0.83;;;;;;;24.70;55.39;100837.16;5124325;28;20329;-65
2022/09/03 02:16:23;;;;;;;5.47;0.90;;;;;;;24.72;55.17;100816.56;5123306;28;20114;-65
2022/09/03 02:19:00;;;;;;;5.83;0.97;;;;;;;24.79;54.27;100828.56;5123375;28;20126;-64
2022/09/03 02:21:50;;;;;;;3.07;0.90;;;;;;;24.70;54.55;100815.78;5123808;28;20051;-65
2022/09/03 02:24:36;;;;;;;2.80;0.77;;;;;;;24.81;54.58;100826.63;5123387;28;20358;-66
2022/09/03 02:30:33;;;;;;;6.57;0.80;;;;;;;24.69;53.67;100819.44;5094940;28;20058;-65
2022/09/03 02:33:35;;;;;;;3.23;0.90;;;;;;;24.83;55.05;100827.38;5123712;28;20380;-64
2022/09/03 02:36:42;;;;;;;3.30;0.90;;;;;;;24.56;53.63;100781.13;5123002;28;20098;-64
2022/09/03 02:39:29;;;;;;;6.93;1.47;;;;;;;24.81;54.97;100810.59;5123338;28;20085;-65
2022/09/03 02:42:33;;;;;;;5.00;0.90;;;;;;;25.04;54.85;100818.88;5122926;28;20052;-65
2022/09/03 02:45:28;;;;;;;4.07;0.83;;;;;;;25.09;53.35;100822.09;5070597;28;20237;-64
2022/09/03 02:48:05;;;;;;;1.07;0.60;;;;;;;25.13;53.47;100818.22;5122815;28;20073;-66
2022/09/03 02:50:53;;;;;;;3.20;0.80;;;;;;;25.10;53.76;100799.72;5123261;28;20047;-67
2022/09/03 02:53:50;;;;;;;6.57;0.90;;;;;;;25.21;53.62;100815.06;5123280;28;20059;-66
2022/09/03 02:56:33;;;;;;;5.17;1.00;;;;;;;25.22;53.47;100806.94;5123793;28;20046;-66
2022/09/03 02:59:11;;;;;;;11.03;1.20;;;;;;;25.19;53.19;100801.81;5123628;28;20051;-63
2022/09/03 03:01:52;;;;;;;2.87;1.07;;;;;;;25.09;52.94;100806.06;5123263;28;20047;-66
2022/09/03 03:04:43;;;;;;;2.97;0.90;;;;;;;25.01;53.36;100793.22;5123832;28;20059;-66
2022/09/03 03:07:20;;;;;;;4.07;0.60;;;;;;;25.09;53.71;100795.34;5095220;28;20051;-66
2022/09/03 03:10:09;;;;;;;3.38;0.90;;;;;;;25.14;53.92;100793.22;5104621;28;20055;-66
2022/09/03 03:12:43;;;;;;;;;;;;;;;25.13;53.75;100794.16;5107376;28;20043;-63
2022/09/03 03:15:21;;;;;;;4.20;1.20;;;;;;;25.12;53.28;100795.13;5122889;28;19983;-63
2022/09/03 03:18:10;;;;;;;2.73;0.63;;;;;;;25.09;53.95;100790.84;5098322;28;20181;-64
2022/09/03 03:20:47;;;;;;;4.77;0.73;;;;;;;25.17;53.48;100787.69;5123178;28;20051;-65
2022/09/03 03:23:29;;;;;;;3.90;0.90;;;;;;;24.97;52.90;100767.63;5069499;28;20523;-66
2022/09/03 03:26:28;;;;;;;3.53;0.90;;;;;;;25.25;54.15;100785.31;5123118;28;20043;-63
2022/09/03 03:29:07;;;;;;;6.33;0.87;;;;;;;25.34;53.64;100783.84;5122056;28;20237;-64
2022/09/03 03:31:44;;;;;;;16.37;1.23;;;;;;;25.33;52.94;100777.59;5121568;28;20051;-63
2022/09/03 03:34:20;;;;;;;2.67;0.67;;;;;;;25.24;52.24;100761.38;5122727;28;20288;-63
2022/09/03 03:36:58;;;;;;;12.23;1.80;;;;;;;25.25;51.91;100766.59;5123114;28;20055;-65
2022/09/03 03:39:38;;;;;;;2.20;0.73;;;;;;;25.24;52.06;100767.59;5121863;28;20058;-64
2022/09/03 03:42:26;;;;;;;7.73;4.63;;;;;;;25.32;52.73;100770.56;5096194;28;20062;-64
2022/09/03 03:45:01;;;;;;;28.80;19.97;;;;;;;25.37;53.15;100773.78;5122662;28;20047;-65
2022/09/03 03:47:44;;;;;;;6.07;2.50;;;;;;;25.42;52.99;100759.22;5096946;28;20132;-62
2022/09/03 03:50:39;;;;;;;7.20;2.07;;;;;;;25.23;53.24;100728.41;5121971;28;20343;-65
2022/09/03 03:53:19;;;;;;;4.67;1.80;;;;;;;25.44;53.28;100758.16;5122540;28;20047;-64
2022/09/03 03:56:01;;;;;;;5.30;2.23;;;;;;;25.24;53.14;100746.19;5083715;28;20047;-64
2022/09/03 03:58:47;;;;;;;4.50;1.40;;;;;;;25.39;52.94;100766.50;5121593;28;20044;-64
2022/09/03 04:01:29;;;;;;;15.13;2.13;;;;;;;25.31;52.88;100758.16;5122303;28;20047;-64
2022/09/03 04:04:20;;;;;;;5.63;1.10;;;;;;;25.48;53.05;100758.78;5121789;28;20043;-65
2022/09/03 04:07:05;;;;;;;6.47;0.90;;;;;;;25.39;53.17;100750.44;5120526;28;20201;-63
2022/09/03 04:09:51;;;;;;;8.90;1.70;;;;;;;25.31;52.88;100758.16;5089456;28;20055;-64
2022/09/03 04:12:36;;;;;;;18.90;2.10;;;;;;;25.28;52.66;100742.31;5062205;28;20061;-65
2022/09/03 04:15:20;;;;;;;1.67;0.90;;;;;;;25.19;53.25;100726.94;5089112;28;20043;-64
2022/09/03 04:18:18;;;;;;;8.17;1.37;;;;;;;25.36;54.20;100750.66;5120593;28;20063;-64
2022/09/03 04:21:06;;;;;;;10.47;1.40;;;;;;;25.34;53.35;100739.22;5028712;28;20056;-65
2022/09/03 04:23:50;;;;;;;12.40;1.27;;;;;;;25.37;53.08;100741.66;5059586;28;20045;-66
2022/09/03 04:26:50;;;;;;;2.95;1.02;;;;;;;25.33;53.14;100740.16;5059334;28;20041;-63
2022/09/03 04:29:50;;;;;;;4.07;0.70;;;;;;;25.28;53.01;100742.31;5059222;28;20049;-66
2022/09/03 04:32:57;;;;;;;16.63;1.67;;;;;;;25.22;54.46;100734.72;5058304;28;20148;-65
2022/09/03 04:35:37;;;;;;;4.40;0.90;;;;;;;25.27;53.92;100740.63;5059338;28;20067;-66
2022/09/03 04:38:26;;;;;;;5.30;1.13;;;;;;;25.24;53.75;100748.00;5058780;28;20079;-65
2022/09/03 04:41:07;;;;;;;3.70;0.80;;;;;;;25.05;53.88;100724.34;5059160;28;20041;-65
2022/09/03 04:43:51;;;;;;;66.43;3.77;;;;;;;25.10;54.40;100738.22;5058286;28;20551;-66
2022/09/03 04:46:40;;;;;;;4.70;1.13;;;;;;;25.15;54.59;100736.09;5059348;28;20204;-64
2022/09/03 04:49:24;;;;;;;3.50;0.70;;;;;;;24.97;54.08;100733.72;5058724;28;20206;-65
2022/09/03 04:52:08;;;;;;;11.87;1.83;;;;;;;24.95;54.69;100735.66;5058820;28;20609;-64
2022/09/03 04:54:53;;;;;;;1.50;0.90;;;;;;;24.95;54.87;100738.31;5058887;28;20244;-65
2022/09/03 04:57:37;;;;;;;4.27;0.70;;;;;;;24.93;55.11;100734.91;5074119;28;20043;-65
2022/09/03 05:00:19;;;;;;;2.13;0.83;;;;;;;24.70;56.33;100701.75;5121415;28;20313;-67
2022/09/03 05:02:54;;;;;;;4.90;1.20;;;;;;;24.94;55.84;100733.94;5078535;28;20155;-64
2022/09/03 05:06:08;;;;;;;9.37;2.10;;;;;;;24.80;54.90;100723.34;5121056;28;20062;-64
2022/09/03 05:08:56;;;;;;;11.80;1.40;;;;;;;24.75;55.65;100728.16;5120389;28;20063;-63
2022/09/03 05:11:50;;;;;;;3.63;1.70;;;;;;;24.65;55.71;100732.41;5121393;28;20083;-62
2022/09/03 05:14:32;;;;;;;8.32;1.42;;;;;;;24.59;56.77;100722.13;5084082;28;20070;-66
2022/09/03 05:17:13;;;;;;;1.80;0.90;;;;;;;24.40;56.15;100712.66;5121165;28;20051;-63
2022/09/03 05:19:52;;;;;;;5.20;1.30;;;;;;;24.53;57.07;100731.41;5121086;28;20052;-64
2022/09/03 05:22:37;;;;;;;14.48;1.40;;;;;;;24.53;56.93;100724.25;5121289;28;20055;-63
2022/09/03 05:25:26;;;;;;;6.00;1.00;;;;;;;24.47;57.84;100719.34;5119756;28;20324;-64
2022/09/03 05:28:18;;;;;;;4.27;0.97;;;;;;;24.48;57.66;100723.72;5121019;28;20113;-63
2022/09/03 05:31:10;;;;;;;6.13;0.97;;;;;;;24.44;57.62;100716.84;5105557;28;20051;-64
2022/09/03 05:36:53;;;;;;;3.97;1.07;;;;;;;24.36;57.80;100732.50;5049094;28;20041;-65
2022/09/03 05:39:49;;;;;;;10.93;1.67;;;;;;;24.28;58.34;100729.50;5073704;28;20552;-64
2022/09/03 05:42:37;;;;;;;4.93;1.25;;;;;;;24.28;58.83;100729.50;5045645;28;20076;-65
2022/09/03 05:45:22;;;;;;;6.27;1.20;;;;;;;24.15;59.18;100712.59;5077526;28;20048;-65
2022/09/03 05:48:10;;;;;;;9.97;4.97;;;;;;;24.21;59.16;100717.50;5075323;28;20064;-65
2022/09/03 05:51:03;;;;;;;4.97;1.23;;;;;;;24.18;59.22;100723.91;5075748;28;20513;-63
2022/09/03 05:53:44;;;;;;;10.70;1.60;;;;;;;24.14;58.67;100726.88;5075921;28;20364;-63
2022/09/03 05:56:34;;;;;;;7.77;1.27;;;;;;;23.90;58.97;100715.03;5021217;28;20152;-64
2022/09/03 05:59:17;;;;;;;10.47;1.10;;;;;;;23.59;59.72;100668.13;5075137;28;20096;-64
2022/09/03 06:04:56;;;;;;;6.37;1.80;;;;;;;23.87;59.68;100730.41;5075805;28;20068;-65
2022/09/03 06:07:37;;;;;;;18.67;3.77;;;;;;;23.75;59.82;100736.53;5076084;28;20064;-64
2022/09/03 06:10:16;;;;;;;6.78;1.52;;;;;;;23.78;60.46;100736.34;5045154;28;20103;-64
2022/09/03 06:13:04;;;;;;;5.23;3.00;;;;;;;23.74;59.26;100724.13;5077678;28;20044;-65
2022/09/03 06:15:48;;;;;;;13.13;5.80;;;;;;;23.59;60.24;100724.16;5097296;28;20075;-67
2022/09/03 06:18:22;;;;;;;18.03;8.53;;;;;;;23.63;59.93;100727.47;5123295;28;20052;-64
2022/09/03 06:21:20;;;;;;;10.70;3.20;;;;;;;23.31;60.05;100682.34;5123970;28;20313;-64
2022/09/03 06:24:01;;;;;;;8.07;1.37;;;;;;;23.53;60.39;100727.19;5124408;28;20062;-63
2022/09/03 06:26:40;;;;;;;7.73;1.70;;;;;;;23.47;60.78;100732.91;5124529;28;20051;-63
2022/09/03 06:29:43;;;;;;;6.33;1.23;;;;;;;23.43;61.35;100734.06;5123950;28;20055;-65
2022/09/03 06:32:22;;;;;;;11.87;1.80;;;;;;;23.41;61.40;100727.94;5123589;28;20047;-64
2022/09/03 06:34:58;;;;;;;22.83;2.73;;;;;;;23.27;61.51;100714.66;5124159;28;20391;-64
2022/09/03 06:37:51;;;;;;;12.13;7.30;;;;;;;23.41;61.74;100722.63;5123373;28;20091;-64
2022/09/03 06:40:55;;;;;;;14.03;3.20;;;;;;;23.02;61.35;100701.03;5123170;28;20063;-63
2022/09/03 06:43:49;;;;;;;27.13;2.87;;;;;;;23.23;61.68;100746.81;5123654;28;20085;-64
2022/09/03 06:46:37;;;;;;;7.47;1.20;;;;;;;23.27;61.69;100741.31;5121619;28;20058;-64
2022/09/03 06:49:17;;;;;;;9.20;1.43;;;;;;;22.85;61.55;100692.31;5123716;28;20047;-62
2022/09/03 06:54:48;;;;;;;10.37;1.73;;;;;;;23.10;61.54;100745.84;5048047;28;20052;-63
2022/09/03 07:00:29;;;;;;;12.90;1.30;;;;;;;23.15;62.47;100751.75;5023468;28;20045;-63
2022/09/03 07:03:24;;;;;;;23.47;2.13;;;;;;;22.94;62.31;100731.69;5069808;28;20135;-62
2022/09/03 07:06:11;;;;;;;9.50;1.90;;;;;;;23.10;62.51;100755.66;5069941;28;20056;-63
2022/09/03 07:08:50;;;;;;;6.95;1.63;;;;;;;23.07;62.45;100746.06;5010554;28;20063;-62
2022/09/03 07:11:45;;;;;;;6.20;1.40;;;;;;;22.83;62.43;100727.88;5066088;28;20056;-63
2022/09/03 07:14:25;;;;;;;11.03;2.70;;;;;;;22.97;62.49;100760.84;5067994;28;20072;-63
2022/09/03 07:17:05;;;;;;;13.13;2.53;;;;;;;22.89;62.96;100763.97;5069763;28;20071;-61
2022/09/03 07:19:48;;;;;;;10.53;2.17;;;;;;;22.76;63.05;100763.81;5068877;28;20052;-62
2022/09/03 07:22:33;;;;;;;9.43;1.40;;;;;;;22.72;63.21;100772.97;5069289;28;20064;-62
2022/09/03 07:25:16;;;;;;;7.57;1.55;;;;;;;22.64;63.00;100769.91;5067992;28;20067;-63
2022/09/03 07:28:09;;;;;;;15.90;2.03;;;;;;;22.32;63.31;100713.22;5069242;28;20064;-63
2022/09/03 07:30:50;;;;;;;21.47;2.13;;;;;;;22.63;63.50;100770.00;5067960;28;20052;-63
2022/09/03 07:33:35;;;;;;;5.10;1.50;;;;;;;22.61;64.05;100770.06;5068861;28;20053;-62
2022/09/03 07:36:23;;;;;;;6.07;1.30;;;;;;;22.49;64.25;100768.13;5068711;28;20067;-62
2022/09/03 07:39:03;;;;;;;6.40;2.13;;;;;;;22.45;64.51;100775.44;5069237;28;20087;-62
2022/09/03 07:41:51;;;;;;;6.60;1.33;;;;;;;22.24;64.32;100750.91;5049254;28;20048;-63
2022/09/03 07:44:46;;;;;;;7.13;1.47;;;;;;;22.34;64.78;100762.75;5069809;28;20049;-63
2022/09/03 07:47:29;;;;;;;26.08;10.35;;;;;;;22.38;64.93;100777.59;5069259;28;20060;-63
2022/09/03 07:50:16;;;;;;;63.43;39.83;;;;;;;22.31;64.96;100778.03;5067266;28;20052;-63
2022/09/03 07:53:01;;;;;;;33.80;19.40;;;;;;;22.26;65.47;100780.94;5069237;28;20369;-63
2022/09/03 07:58:28;;;;;;;37.33;10.27;;;;;;;22.24;65.54;100776.66;5095657;28;20043;-61
2022/09/03 08:01:16;;;;;;;9.10;3.70;;;;;;;22.25;65.41;100773.91;5081361;28;20051;-62
2022/09/03 08:04:03;;;;;;;12.87;4.77;;;;;;;22.12;65.35;100763.09;5081130;28;20073;-62
2022/09/03 08:06:47;;;;;;;9.03;2.90;;;;;;;22.05;65.23;100750.22;5120146;28;20040;-62
2022/09/03 08:09:32;;;;;;;7.40;1.60;;;;;;;22.14;65.11;100786.94;5122361;28;20386;-62
2022/09/03 08:12:10;;;;;;;10.83;4.33;;;;;;;22.09;65.96;100800.53;5120394;28;20938;-63
2022/09/03 08:14:56;;;;;;;39.20;6.13;;;;;;;22.07;66.00;100799.75;5122075;28;20213;-62
2022/09/03 08:17:30;;;;;;;18.70;3.10;;;;;;;22.06;66.23;100794.50;5122065;28;20067;-62
2022/09/03 08:20:09;;;;;;;31.42;3.65;;;;;;;22.04;66.87;100801.69;5088388;28;20289;-62
2022/09/03 08:22:48;;;;;;;18.40;3.33;;;;;;;22.00;67.19;100810.81;5121469;28;20155;-62
2022/09/03 08:25:35;;;;;;;15.30;2.90;;;;;;;21.74;67.14;100767.84;5103400;28;20115;-62
2022/09/03 08:28:11;;;;;;;13.03;3.00;;;;;;;21.92;67.47;100809.44;5122329;28;20107;-62
2022/09/03 08:31:11;;;;;;;13.20;2.63;;;;;;;21.86;67.79;100807.09;5077112;28;20039;-63
2022/09/03 08:34:07;;;;;;;12.03;1.93;;;;;;;21.67;68.05;100788.63;5119263;28;20343;-62
2022/09/03 08:40:32;;;;;;;6.50;1.92;;;;;;;21.62;68.93;100811.09;5118202;28;20293;-62
2022/09/03 08:43:24;;;;;;;21.07;2.00;;;;;;;21.54;69.29;100817.69;5121569;28;20093;-61
2022/09/03 08:46:09;;;;;;;;;;;;;;;21.48;69.66;100819.81;5104099;28;20290;-61
2022/09/03 08:48:47;;;;;;;6.93;1.50;;;;;;;21.19;69.91;100813.31;5121779;28;19923;-61
2022/09/03 08:51:30;;;;;;;12.87;1.90;;;;;;;20.98;71.41;100826.78;5121300;28;20406;-61
2022/09/03 08:54:21;;;;;;;8.53;2.10;;;;;;;20.72;72.66;100827.22;5121953;28;20587;-61
2022/09/03 08:57:06;;;;;;;11.50;2.03;;;;;;;20.47;73.86;100820.44;5101861;28;20277;-61
2022/09/03 09:02:55;;;;;;;6.27;2.13;;;;;;;20.03;76.04;100812.81;5121354;28;20286;-61
2022/09/03 09:05:58;;;;;;;22.77;3.30;;;;;;;19.64;77.04;100808.38;5120985;28;20270;-61
2022/09/03 09:08:49;;;;;;;13.87;2.40;;;;;;;19.47;78.55;100800.31;5121728;28;20278;-63
2022/09/03 09:11:41;;;;;;;10.77;2.53;;;;;;;19.38;78.49;100810.41;5085935;28;20293;-62
2022/09/03 09:14:27;;;;;;;9.93;2.03;;;;;;;19.28;78.91;100805.59;5121024;28;20278;-61
2022/09/03 09:17:32;;;;;;;7.90;1.60;;;;;;;19.05;79.19;100809.25;5120444;28;20297;-62
2022/09/03 09:20:21;;;;;;;15.10;1.80;;;;;;;18.85;80.11;100810.94;5120297;28;20300;-62
2022/09/03 09:23:07;;;;;;;6.80;1.50;;;;;;;18.59;80.49;100817.25;5120806;28;20284;-61
2022/09/03 09:26:05;;;;;;;8.33;2.30;;;;;;;18.30;81.02;100784.06;5121614;28;20281;-63
2022/09/03 09:28:51;;;;;;;9.53;2.23;;;;;;;18.59;81.28;100821.69;5120729;28;20344;-62
2022/09/03 09:31:29;;;;;;;11.33;2.07;;;;;;;18.59;81.35;100822.56;5057067;28;20286;-61
2022/09/03 09:34:21;;;;;;;5.63;1.80;;;;;;;18.57;81.03;100816.50;5121121;28;20579;-62
2022/09/03 09:37:02;;;;;;;22.40;3.20;;;;;;;18.49;80.12;100837.94;5094809;28;20282;-62
2022/09/03 09:39:35;;;;;;;;;;;;;;;18.20;80.34;100846.19;5075835;28;20313;-62
2022/09/03 09:42:29;;;;;;;27.50;16.23;;;;;;;17.66;81.26;100842.88;5121169;28;19923;-62
2022/09/03 09:45:16;;;;;;;23.33;11.77;;;;;;;17.38;83.00;100841.22;5085404;28;20594;-62
2022/09/03 09:48:02;;;;;;;14.30;6.70;;;;;;;17.44;83.07;100856.00;5109576;28;20290;-62
2022/09/03 09:50:54;;;;;;;7.53;3.67;;;;;;;17.34;83.41;100849.31;5124666;28;20439;-63
2022/09/03 09:53:32;;;;;;;11.70;5.27;;;;;;;17.54;84.10;100856.53;5124900;28;20313;-62
2022/09/03 09:56:11;;;;;;;18.47;4.37;;;;;;;17.68;83.38;100868.34;5078997;28;20290;-62
2022/09/03 10:01:44;;;;;;;11.20;2.90;;;;;;;17.65;82.81;100859.66;5124702;28;20293;-62
2022/09/03 10:04:32;;;;;;;7.83;2.40;;;;;;;17.69;82.26;100872.69;5078619;28;20043;-62
2022/09/03 10:07:32;;;;;;;25.17;2.63;;;;;;;17.48;81.88;100873.47;5081558;28;20293;-62
2022/09/03 10:10:24;;;;;;;11.13;2.07;;;;;;;17.16;81.79;100878.09;5122381;28;20590;-63
2022/09/03 10:13:13;;;;;;;9.93;2.50;;;;;;;16.94;82.21;100877.94;5096054;28;20309;-62
2022/09/03 10:15:53;;;;;;;31.58;18.40;;;;;;;16.41;83.85;100882.25;5124849;28;20818;-62
2022/09/03 10:18:46;;;;;;;38.07;24.20;;;;;;;16.25;85.49;100898.53;5124198;28;20059;-62
2022/09/03 10:21:41;;;;;;;21.43;12.67;;;;;;;16.38;87.02;100894.63;5123365;28;20341;-63
2022/09/03 10:24:47;;;;;;;7.33;5.10;;;;;;;16.60;85.33;100907.16;5124333;28;20377;-62
2022/09/03 10:27:32;;;;;;;12.90;4.40;;;;;;;16.63;85.55;100904.41;5122935;28;20315;-63
2022/09/03 10:30:15;;;;;;;13.23;5.23;;;;;;;16.86;85.13;100910.78;5124481;28;20285;-62
2022/09/03 10:33:15;;;;;;;9.37;5.27;;;;;;;17.01;83.95;100915.56;5122644;28;20522;-62
2022/09/03 10:36:20;;;;;;;15.80;5.53;;;;;;;17.04;83.02;100915.44;5122512;28;20308;-62
2022/09/03 10:39:10;;;;;;;33.53;3.40;;;;;;;16.93;82.37;100917.59;5123748;28;20378;-62
2022/09/03 10:42:38;;;;;;;11.23;2.60;;;;;;;16.30;82.46;100886.09;5090337;28;20294;-62
2022/09/03 10:45:27;;;;;;;14.90;4.23;;;;;;;15.69;84.48;100924.69;5123303;28;20293;-62
2022/09/03 10:48:33;;;;;;;5.80;2.47;;;;;;;15.32;87.43;100941.44;5123545;28;20305;-63
2022/09/03 10:51:39;;;;;;;12.27;4.30;;;;;;;15.17;88.45;100942.69;5109046;28;20284;-61
2022/09/03 10:54:37;;;;;;;9.07;3.00;;;;;;;15.32;89.04;100930.91;5028900;28;20624;-63
2022/09/03 10:57:30;;;;;;;9.17;2.07;;;;;;;15.40;88.61;100923.72;5030431;28;20288;-63
2022/09/03 11:00:10;;;;;;;10.93;2.20;;;;;;;15.36;88.17;100927.31;5015156;28;20289;-63
2022/09/03 11:03:27;;;;;;;8.00;2.90;;;;;;;15.08;88.13;100928.00;5031291;28;20288;-61
2022/09/03 11:06:17;;;;;;;12.40;3.23;;;;;;;14.80;89.48;100934.81;5030440;28;20281;-62
2022/09/03 11:09:23;;;;;;;15.53;8.53;;;;;;;14.66;90.18;100933.38;5031445;28;20600;-63
2022/09/03 11:12:18;;;;;;;20.75;12.52;;;;;;;14.59;91.03;100939.66;5030644;28;20351;-63
2022/09/03 11:15:18;;;;;;;14.30;8.77;;;;;;;14.55;91.44;100943.28;5031043;28;20056;-63
2022/09/03 11:18:24;;;;;;;14.17;3.53;;;;;;;14.61;91.40;100940.50;5030815;28;20288;-63
2022/09/03 11:21:09;;;;;;;13.15;3.58;;;;;;;14.67;91.60;100942.13;5030644;28;20293;-62
2022/09/03 11:23:49;;;;;;;16.80;4.67;;;;;;;14.61;91.13;100937.00;5022916;28;20081;-62
2022/09/03 11:26:35;;;;;;;9.17;3.90;;;;;;;14.11;91.47;100863.56;5030998;28;20288;-65
2022/09/03 11:29:22;;;;;;;7.73;2.17;;;;;;;14.49;91.82;100937.25;5048030;28;20322;-65
2022/09/03 11:32:09;;;;;;;30.07;20.10;;;;;;;14.40;91.97;100935.66;5049983;28;20295;-63
2022/09/03 11:34:50;;;;;;;11.73;7.90;;;;;;;14.31;92.30;100943.75;5049810;28;20427;-64
2022/09/03 11:37:34;;;;;;;10.53;6.97;;;;;;;14.06;92.75;100917.97;5019167;28;20075;-64
2022/09/03 11:40:28;;;;;;;9.03;5.10;;;;;;;14.17;92.92;100926.50;5122788;28;20357;-63
2022/09/03 11:43:14;;;;;;;7.17;4.63;;;;;;;14.15;93.08;100920.44;5122370;28;20626;-64
2022/09/03 11:46:13;;;;;;;8.93;3.30;;;;;;;14.22;93.42;100922.00;5122444;28;20294;-64
2022/09/03 11:49:27;;;;;;;6.73;1.90;;;;;;;14.29;92.69;100925.38;5122839;28;20331;-64
2022/09/03 11:52:31;;;;;;;6.90;2.60;;;;;;;14.28;92.61;100928.03;5111736;28;20286;-64
2022/09/03 11:55:12;;;;;;;;;;;;;;;14.31;92.61;100922.72;5121580;28;20075;-65
2022/09/03 11:57:59;;;;;;;5.15;2.30;;;;;;;14.33;92.10;100931.47;5079032;28;19931;-65
2022/09/03 12:00:53;;;;;;;8.07;2.00;;;;;;;14.26;91.72;100924.59;5122164;28;20047;-65
2022/09/03 12:03:30;;;;;;;6.37;2.13;;;;;;;14.27;91.51;100935.06;5121598;28;20312;-65
2022/09/03 12:06:34;;;;;;;5.78;2.00;;;;;;;14.23;91.22;100931.63;5121888;28;20693;-64
2022/09/03 12:09:54;;;;;;;32.20;3.33;;;;;;;14.22;91.08;100935.16;5097282;28;20039;-64
2022/09/03 12:12:55;;;;;;;14.38;4.80;;;;;;;14.16;90.99;100940.53;5121578;28;20293;-64
2022/09/03 12:16:16;;;;;;;11.40;4.83;;;;;;;14.10;90.96;100951.16;5122263;28;20418;-65
2022/09/03 12:19:12;;;;;;;17.63;4.50;;;;;;;13.86;91.00;100920.16;5121778;28;20370;-64
2022/09/03 12:22:28;;;;;;;12.53;4.53;;;;;;;13.98;90.43;100949.66;5121436;28;20284;-64
2022/09/03 12:25:15;;;;;;;18.17;5.80;;;;;;;14.01;89.93;100951.38;5098456;28;20343;-64
2022/09/03 12:27:56;;;;;;;17.40;8.77;;;;;;;13.94;89.80;100945.34;5052524;28;20577;-65
2022/09/03 12:30:33;;;;;;;14.95;7.85;;;;;;;13.88;89.95;100949.84;5098496;28;20244;-65
2022/09/03 12:33:18;;;;;;;15.30;7.75;;;;;;;13.77;90.50;100947.44;5067675;28;20569;-64
2022/09/03 12:36:07;;;;;;;13.93;6.80;;;;;;;13.40;91.11;100895.59;5096780;28;20155;-64
2022/09/03 12:38:59;;;;;;;13.02;6.45;;;;;;;13.72;90.94;100944.03;5030503;28;20047;-64
2022/09/03 12:42:00;;;;;;;11.00;6.70;;;;;;;13.67;90.48;100946.72;5097795;28;20052;-64
2022/09/03 12:44:42;;;;;;;12.57;7.40;;;;;;;13.41;90.61;100906.97;5098467;28;20115;-65
2022/09/03 12:47:21;;;;;;;10.82;5.00;;;;;;;13.56;90.92;100943.44;5098139;28;20297;-65
2022/09/03 12:53:12;;;;;;;7.95;5.30;;;;;;;13.47;90.91;100938.34;5097869;28;20090;-65
2022/09/03 12:55:55;;;;;;;15.75;5.03;;;;;;;13.07;90.24;100876.03;5108064;28;20048;-64
2022/09/03 12:58:48;;;;;;;10.98;4.88;;;;;;;13.36;89.88;100939.41;5121301;28;20109;-64
2022/09/03 13:01:30;;;;;;;13.00;4.78;;;;;;;13.45;91.09;100945.38;5121167;28;20275;-64
2022/09/03 13:04:14;;;;;;;7.95;4.80;;;;;;;13.48;90.24;100942.69;5113058;28;20069;-64
2022/09/03 13:06:56;;;;;;;14.57;5.05;;;;;;;13.30;90.11;100922.88;5121832;28;20066;-64
2022/09/03 13:10:02;;;;;;;12.70;5.13;;;;;;;13.46;90.23;100952.38;5121168;28;20335;-64
2022/09/03 13:12:56;;;;;;;8.85;4.53;;;;;;;13.22;90.15;100949.22;5121888;28;20250;-64
2022/09/03 13:15:39;;;;;;;14.40;3.80;;;;;;;13.23;91.11;100956.22;5103829;28;20363;-63
2022/09/03 13:18:38;;;;;;;6.72;3.30;;;;;;;13.26;91.67;100961.44;5120755;28;20071;-63
2022/09/03 13:21:52;;;;;;;4.60;3.03;;;;;;;13.16;91.31;100962.47;5068490;28;20056;-63
2022/09/03 13:28:01;;;;;;;6.22;2.72;;;;;;;12.91;92.41;100968.09;5071147;28;20104;-64
2022/09/03 13:30:55;;;;;;;5.88;2.70;;;;;;;12.95;92.57;100969.78;5072265;28;20094;-65
2022/09/03 13:33:41;;;;;;;7.93;3.63;;;;;;;12.94;92.27;100961.94;5070991;28;20052;-64
2022/09/03 13:36:31;;;;;;;12.32;3.30;;;;;;;12.93;92.18;100961.06;5040243;28;20068;-64
2022/09/03 13:39:31;;;;;;;6.53;2.80;;;;;;;12.92;91.68;100959.31;5072318;28;20107;-63